Time;durP1;ratioP1;P1;durP2;ratioP2;P2;SDS_P1;SDS_P2;PMS_P1;PMS_P2;Temp;Humidity;BMP_temperature;BMP_pressure;BME280_temperature;BME280_humidity;BME280_pressure;Samples;Min_cycle;Max_cycle;Signal;HPM_P1;HPM_P2
2022/03/27 00:06:20;;;;;;;31.08;12.57;;;9.90;89.20;;;;;;20793558;28;19924;-73
2022/03/27 00:16:21;;;;;;;31.73;13.43;;;9.90;88.60;;;;;;20809163;28;20488;-73
2022/03/27 00:26:22;;;;;;;32.10;13.47;;;10.30;86.70;;;;;;20801136;28;20041;-73
2022/03/27 00:36:23;;;;;;;37.50;13.47;;;9.90;88.40;;;;;;20835811;28;20113;-73
2022/03/27 00:46:24;;;;;;;29.53;13.37;;;9.60;89.50;;;;;;20747002;28;20077;-72
2022/03/27 00:56:24;;;;;;;36.57;13.77;;;9.50;89.80;;;;;;20744844;28;20457;-73
2022/03/27 01:06:38;;;;;;;30.13;12.70;;;9.40;90.10;;;;;;20726866;28;20034;-73
2022/03/27 01:16:42;;;;;;;30.60;12.93;;;9.50;89.40;;;;;;20743685;28;20037;-73
2022/03/27 01:26:45;;;;;;;31.33;13.27;;;9.50;89.30;;;;;;20742965;28;20067;-73
2022/03/27 01:36:46;;;;;;;27.17;13.07;;;9.80;87.80;;;;;;20725265;28;20056;-73
2022/03/27 01:46:46;;;;;;;30.90;12.57;;;9.80;87.80;;;;;;20742621;28;20049;-73
2022/03/27 01:56:47;;;;;;;29.47;12.87;;;10.00;87.80;;;;;;20741983;28;20041;-73
2022/03/27 02:06:48;;;;;;;31.73;12.90;;;10.00;87.40;;;;;;20742429;28;20037;-73
2022/03/27 02:16:49;;;;;;;28.13;12.53;;;10.10;87.00;;;;;;20742300;28;20056;-72
2022/03/27 02:26:50;;;;;;;28.53;12.80;;;10.10;86.70;;;;;;20744455;28;20052;-73
2022/03/27 02:36:51;;;;;;;29.67;12.40;;;9.90;87.30;;;;;;20723667;28;20400;-73
2022/03/27 02:46:52;;;;;;;28.80;12.83;;;9.70;88.20;;;;;;20751869;28;20117;-73
2022/03/27 02:56:53;;;;;;;28.53;12.97;;;9.50;88.80;;;;;;20753950;28;20033;-72
2022/03/27 03:06:54;;;;;;;33.93;12.47;;;9.20;89.10;;;;;;20739273;28;20069;-73
2022/03/27 03:16:55;;;;;;;29.73;13.03;;;9.20;89.80;;;;;;20752235;28;20115;-73
2022/03/27 03:26:57;;;;;;;31.10;13.43;;;9.10;90.20;;;;;;20751610;28;20040;-73
2022/03/27 03:36:58;;;;;;;;;;;8.30;92.00;;;;;;20751144;28;20488;-72
2022/03/27 03:46:59;;;;;;;35.03;12.90;;;8.20;92.10;;;;;;20749989;28;19936;-73
2022/03/27 03:57:02;;;;;;;34.23;12.73;;;8.10;92.60;;;;;;20748007;28;20088;-73
2022/03/27 04:07:06;;;;;;;26.80;12.18;;;7.80;93.10;;;;;;20753558;28;20572;-73
2022/03/27 04:17:07;;;;;;;33.45;11.68;;;8.00;93.00;;;;;;20748882;28;20026;-72
2022/03/27 04:27:08;;;;;;;28.83;12.77;;;7.90;93.30;;;;;;20746923;28;20176;-73
2022/03/27 04:37:08;;;;;;;38.73;11.83;;;7.80;93.10;;;;;;20746173;28;20477;-73
2022/03/27 04:47:09;;;;;;;33.57;12.17;;;8.00;92.60;;;;;;20792286;28;20551;-73
2022/03/27 04:57:10;;;;;;;28.77;12.90;;;7.90;92.60;;;;;;20837144;28;20037;-73
2022/03/27 05:07:11;;;;;;;32.27;11.93;;;7.90;92.80;;;;;;20830746;28;20022;-72
2022/03/27 05:17:12;;;;;;;35.67;13.00;;;7.70;93.20;;;;;;20844706;28;20036;-73
2022/03/27 05:27:17;;;;;;;36.20;13.23;;;7.60;93.40;;;;;;20819887;28;20043;-73
2022/03/27 05:37:17;;;;;;;31.27;12.07;;;7.50;94.00;;;;;;20814203;28;20037;-73
2022/03/27 05:47:18;;;;;;;27.27;11.43;;;7.60;94.00;;;;;;20845759;28;20037;-72
2022/03/27 05:57:19;;;;;;;29.07;10.33;;;7.70;93.90;;;;;;20846775;28;20031;-73
2022/03/27 06:07:20;;;;;;;29.53;11.07;;;7.90;93.80;;;;;;20762281;28;20046;-75
2022/03/27 06:17:21;;;;;;;30.37;12.23;;;7.80;95.40;;;;;;20870603;28;20031;-75
2022/03/27 06:27:21;;;;;;;30.00;12.50;;;7.90;97.00;;;;;;20862567;28;20041;-75
2022/03/27 06:37:23;;;;;;;30.07;11.07;;;8.10;97.30;;;;;;20857966;28;20029;-75
2022/03/27 06:47:26;;;;;;;27.07;13.07;;;9.20;97.00;;;;;;20866843;28;20109;-75
2022/03/27 06:57:27;;;;;;;29.45;13.25;;;9.70;97.20;;;;;;20816424;28;20086;-75
2022/03/27 07:07:28;;;;;;;41.07;18.53;;;9.80;99.90;;;;;;20839681;28;20385;-75
2022/03/27 07:17:29;;;;;;;28.37;13.37;;;10.70;97.30;;;;;;20826421;28;20144;-74
2022/03/27 07:27:31;;;;;;;31.33;13.47;;;10.90;99.20;;;;;;20820676;28;20033;-74
2022/03/27 07:37:34;;;;;;;30.27;12.25;;;11.60;98.20;;;;;;20813739;28;20034;-74
2022/03/27 07:47:35;;;;;;;29.58;13.15;;;11.50;97.80;;;;;;20811658;28;20052;-74
2022/03/27 07:57:36;;;;;;;26.53;12.90;;;13.10;95.70;;;;;;20787267;28;20381;-75
2022/03/27 08:07:37;;;;;;;31.73;12.83;;;13.80;93.10;;;;;;20814261;28;20025;-74
2022/03/27 08:17:38;;;;;;;31.27;14.18;;;13.60;95.30;;;;;;20810446;28;20040;-73
2022/03/27 08:27:39;;;;;;;25.40;11.93;;;13.80;93.70;;;;;;20865711;28;20032;-74
2022/03/27 08:37:40;;;;;;;25.17;12.57;;;14.90;92.20;;;;;;20781914;28;20046;-74
2022/03/27 08:47:41;;;;;;;27.77;12.47;;;16.10;90.30;;;;;;20756570;28;20076;-74
2022/03/27 08:57:44;;;;;;;33.07;13.27;;;16.60;90.20;;;;;;20878345;22;20509;-74
2022/03/27 09:07:45;;;;;;;32.72;13.50;;;17.70;84.40;;;;;;20889318;28;20411;-73
2022/03/27 09:17:54;;;;;;;36.13;12.73;;;17.10;81.30;;;;;;20840663;28;20041;-73
2022/03/27 09:27:57;;;;;;;29.65;14.27;;;17.60;77.70;;;;;;20866048;28;20045;-73
2022/03/27 09:37:57;;;;;;;31.60;13.60;;;18.50;78.00;;;;;;20738294;28;20594;-73
2022/03/27 09:48:08;;;;;;;25.27;11.60;;;19.10;82.40;;;;;;20805411;28;20111;-74
2022/03/27 09:58:09;;;;;;;31.98;13.88;;;20.50;73.40;;;;;;20821062;28;20040;-74
2022/03/27 10:08:10;;;;;;;29.93;13.70;;;20.90;74.30;;;;;;20831336;28;20045;-74
2022/03/27 10:18:14;;;;;;;28.13;14.10;;;21.60;68.30;;;;;;20857143;28;20043;-74
2022/03/27 10:28:19;;;;;;;28.38;12.65;;;21.50;70.20;;;;;;20869596;28;20029;-75
2022/03/27 10:38:54;;;;;;;24.77;13.70;;;21.50;75.10;;;;;;20812566;28;20068;-75
2022/03/27 10:49:14;;;;;;;26.67;13.52;;;22.30;67.40;;;;;;20804582;28;20042;-74
2022/03/27 10:59:24;;;;;;;24.38;12.98;;;21.80;69.20;;;;;;20806603;28;20038;-74
2022/03/27 11:09:36;;;;;;;23.50;13.07;;;21.50;71.20;;;;;;20814502;28;20085;-74
2022/03/27 11:19:44;;;;;;;28.13;14.25;;;22.50;66.80;;;;;;20807512;28;20045;-74
2022/03/27 11:30:11;;;;;;;26.98;13.75;;;23.90;64.00;;;;;;20813906;28;20044;-74
2022/03/27 11:40:39;;;;;;;26.40;13.82;;;23.10;65.90;;;;;;20812389;28;20052;-75
2022/03/27 11:50:40;;;;;;;25.77;11.88;;;22.00;64.90;;;;;;20813631;28;20034;-75
2022/03/27 12:00:44;;;;;;;21.83;12.80;;;22.30;71.80;;;;;;20812581;28;20587;-74
2022/03/27 12:10:54;;;;;;;21.23;11.50;;;23.40;62.20;;;;;;20810791;28;20033;-75
2022/03/27 12:20:56;;;;;;;23.75;12.25;;;23.60;64.50;;;;;;20808669;28;20413;-77
2022/03/27 12:30:57;;;;;;;20.88;11.55;;;24.60;59.70;;;;;;20789030;28;20091;-77
2022/03/27 12:40:58;;;;;;;18.20;10.83;;;22.70;59.80;;;;;;20801890;28;20490;-76
2022/03/27 12:50:59;;;;;;;16.33;10.33;;;24.00;57.10;;;;;;20817077;28;20284;-77
2022/03/27 13:01:03;;;;;;;;;;;24.50;58.60;;;;;;20827919;28;20041;-76
2022/03/27 13:11:20;;;;;;;24.45;11.65;;;23.90;58.00;;;;;;20826543;28;19999;-76
2022/03/27 13:21:21;;;;;;;37.63;18.25;;;23.50;61.40;;;;;;20828143;28;20091;-76
2022/03/27 13:31:22;;;;;;;24.37;11.37;;;24.20;57.80;;;;;;20825060;28;20033;-76
2022/03/27 13:51:43;;;;;;;18.50;10.65;;;23.90;59.70;;;;;;20882297;28;20029;-76
2022/03/27 14:01:45;;;;;;;16.48;10.07;;;24.90;59.30;;;;;;20897403;28;20115;-76
2022/03/27 14:11:47;;;;;;;17.00;10.20;;;25.50;55.60;;;;;;20856078;28;20068;-74
2022/03/27 14:21:49;;;;;;;17.35;9.68;;;24.40;57.10;;;;;;20822105;28;20030;-76
2022/03/27 14:31:52;;;;;;;13.32;8.18;;;24.60;55.40;;;;;;20823421;28;20034;-77
2022/03/27 14:41:53;;;;;;;16.13;9.88;;;25.10;52.00;;;;;;20833701;28;20031;-76
2022/03/27 14:51:53;;;;;;;15.73;9.50;;;24.10;54.40;;;;;;20835929;28;20064;-76
2022/03/27 15:01:54;;;;;;;14.50;8.80;;;23.60;54.10;;;;;;20923418;22;20569;-75
2022/03/27 15:11:56;;;;;;;15.23;9.70;;;24.10;52.30;;;;;;20918125;28;20053;-75
2022/03/27 15:21:58;;;;;;;14.70;9.52;;;24.00;53.10;;;;;;20921693;28;20495;-73
2022/03/27 15:32:00;;;;;;;18.05;9.45;;;24.50;52.30;;;;;;20916562;28;20082;-74
2022/03/27 15:42:01;;;;;;;15.25;9.43;;;23.90;53.30;;;;;;20915666;28;20029;-75
2022/03/27 15:52:03;;;;;;;23.20;10.07;;;23.70;53.30;;;;;;20914954;28;20039;-74
2022/03/27 16:02:06;;;;;;;19.88;11.05;;;23.00;55.00;;;;;;20914183;28;20033;-74
2022/03/27 16:12:08;;;;;;;21.50;10.60;;;22.60;57.20;;;;;;20913518;28;20039;-73
2022/03/27 16:22:09;;;;;;;18.80;10.18;;;22.10;56.70;;;;;;20912677;28;20044;-74
2022/03/27 16:32:10;;;;;;;17.03;10.47;;;21.60;54.50;;;;;;20893970;28;20033;-74
2022/03/27 16:42:11;;;;;;;16.50;9.57;;;21.30;57.00;;;;;;20911052;28;20079;-74
2022/03/27 16:52:12;;;;;;;16.03;8.70;;;21.00;57.10;;;;;;20912284;28;20037;-74
2022/03/27 17:02:14;;;;;;;14.13;7.83;;;20.60;55.40;;;;;;20911521;28;20684;-75
2022/03/27 17:12:15;;;;;;;19.05;8.05;;;20.20;56.40;;;;;;20909083;28;20029;-73
2022/03/27 17:22:17;;;;;;;15.20;8.60;;;19.80;56.30;;;;;;20908803;28;20068;-73
2022/03/27 17:32:17;;;;;;;;;;;18.80;62.70;;;;;;20907039;28;20037;-74
2022/03/27 17:42:18;;;;;;;13.65;7.03;;;17.60;66.90;;;;;;20906780;28;19908;-74
2022/03/27 17:52:19;;;;;;;13.50;7.20;;;16.20;65.40;;;;;;20906746;28;20577;-74
2022/03/27 18:02:20;;;;;;;17.57;7.50;;;15.60;70.20;;;;;;20905917;28;20511;-74
2022/03/27 18:12:21;;;;;;;10.67;6.70;;;14.50;75.30;;;;;;20908838;28;20025;-74
2022/03/27 18:22:23;;;;;;;13.77;7.53;;;14.20;75.80;;;;;;20921572;28;20037;-75
2022/03/27 18:32:24;;;;;;;15.57;7.45;;;13.10;80.70;;;;;;20920274;28;20029;-75
2022/03/27 18:42:24;;;;;;;11.70;6.60;;;12.60;80.10;;;;;;20921072;28;20033;-74
2022/03/27 18:52:25;;;;;;;13.57;7.00;;;12.10;83.00;;;;;;20841688;28;20039;-74
2022/03/27 19:02:27;;;;;;;14.90;7.30;;;11.70;81.20;;;;;;20859537;28;20073;-75
2022/03/27 19:12:28;;;;;;;12.67;6.90;;;11.30;85.80;;;;;;20897522;28;20688;-75
2022/03/27 19:22:39;;;;;;;13.27;6.93;;;11.10;85.40;;;;;;20789414;28;20537;-74
2022/03/27 19:32:41;;;;;;;14.60;7.68;;;11.00;85.70;;;;;;20817123;28;20601;-75
2022/03/27 19:42:43;;;;;;;13.57;7.70;;;10.30;88.80;;;;;;20812729;28;20034;-75
2022/03/27 19:52:44;;;;;;;15.27;8.32;;;10.10;89.40;;;;;;20854938;28;20559;-74
2022/03/27 20:02:48;;;;;;;15.43;7.77;;;9.90;89.50;;;;;;20811154;28;20131;-75
2022/03/27 20:12:51;;;;;;;17.67;8.65;;;9.80;90.40;;;;;;20817481;28;20029;-73
2022/03/27 20:22:52;;;;;;;15.52;7.85;;;9.50;91.50;;;;;;20816587;28;20044;-75
2022/03/27 20:32:53;;;;;;;;;;;9.50;91.10;;;;;;20801903;28;20522;-74
2022/03/27 20:42:54;;;;;;;13.63;6.72;;;8.90;92.70;;;;;;20800565;28;19914;-73
2022/03/27 20:52:56;;;;;;;18.93;7.00;;;8.10;95.20;;;;;;20772393;28;20120;-74
2022/03/27 21:02:56;;;;;;;20.00;7.57;;;8.00;95.30;;;;;;21054367;22;20048;-73
2022/03/27 21:12:57;;;;;;;16.13;6.37;;;8.00;95.60;;;;;;20919266;28;20090;-75
2022/03/27 21:22:59;;;;;;;21.53;7.97;;;8.30;94.30;;;;;;20907968;28;20029;-75
2022/03/27 21:33:02;;;;;;;14.45;7.82;;;8.20;94.90;;;;;;20889712;28;20045;-74
2022/03/27 21:43:03;;;;;;;15.65;8.35;;;7.60;96.50;;;;;;20907480;28;20036;-73
2022/03/27 21:53:04;;;;;;;14.70;6.97;;;7.30;97.90;;;;;;20905051;28;20041;-74
2022/03/27 22:03:05;;;;;;;16.83;7.77;;;7.30;98.00;;;;;;20923591;28;20499;-74
2022/03/27 22:13:06;;;;;;;17.47;7.53;;;7.20;99.40;;;;;;20923546;28;20033;-74
2022/03/27 22:23:08;;;;;;;14.57;7.13;;;7.20;99.20;;;;;;20922065;28;20109;-74
2022/03/27 22:33:09;;;;;;;14.77;7.03;;;6.80;99.60;;;;;;20924588;28;20055;-73
2022/03/27 22:43:10;;;;;;;14.67;7.17;;;6.70;99.90;;;;;;20920581;28;20100;-73
2022/03/27 22:53:11;;;;;;;13.70;6.63;;;6.60;99.90;;;;;;20919429;28;20162;-75
2022/03/27 23:03:13;;;;;;;14.70;7.47;;;6.60;99.90;;;;;;20917801;28;20276;-74
2022/03/27 23:13:13;;;;;;;17.93;7.30;;;6.20;99.90;;;;;;20918155;28;20379;-74
2022/03/27 23:23:14;;;;;;;15.83;7.10;;;6.30;99.90;;;;;;20917447;28;20367;-74
2022/03/27 23:33:15;;;;;;;12.82;6.65;;;6.20;99.90;;;;;;20916831;28;20518;-74
2022/03/27 23:43:17;;;;;;;20.17;7.53;;;5.20;99.90;;;;;;20915782;28;20033;-73
2022/03/27 23:53:18;;;;;;;17.50;8.43;;;5.30;99.90;;;;;;20915021;28;20033;-74
